Time;durP1;ratioP1;P1;durP2;ratioP2;P2;SDS_P1;SDS_P2;PMS_P1;PMS_P2;Temp;Humidity;BMP_temperature;BMP_pressure;BME280_temperature;BME280_humidity;BME280_pressure;Samples;Min_cycle;Max_cycle;Signal;HPM_P1;HPM_P2
2021/04/06 00:01:58;;;;;;;3.07;2.03;;;1.10;99.70;;;;;;5068762;28;20498;-69
2021/04/06 00:04:28;;;;;;;6.20;2.30;;;1.00;99.70;;;;;;5068444;28;20435;-69
2021/04/06 00:06:59;;;;;;;4.60;2.27;;;1.20;99.70;;;;;;5067876;28;20477;-70
2021/04/06 00:09:28;;;;;;;3.57;2.13;;;1.00;99.70;;;;;;5068855;28;20439;-69
2021/04/06 00:11:56;;;;;;;3.07;2.30;;;0.50;99.70;;;;;;5068776;28;20836;-70
2021/04/06 00:14:24;;;;;;;4.13;2.10;;;0.70;99.70;;;;;;5068167;28;20490;-68
2021/04/06 00:16:52;;;;;;;4.87;2.23;;;0.90;99.70;;;;;;5067760;28;20634;-70
2021/04/06 00:19:21;;;;;;;3.83;2.03;;;1.30;99.70;;;;;;5068314;28;21009;-69
2021/04/06 00:21:51;;;;;;;4.70;2.00;;;0.90;99.70;;;;;;5068514;28;20463;-69
2021/04/06 00:24:19;;;;;;;5.17;2.70;;;0.80;99.70;;;;;;5068221;28;20439;-69
2021/04/06 00:26:48;;;;;;;3.13;2.17;;;0.60;99.70;;;;;;5067401;28;20871;-69
2021/04/06 00:29:15;;;;;;;3.43;1.90;;;0.60;99.70;;;;;;5068440;28;20447;-70
2021/04/06 00:31:43;;;;;;;7.60;2.27;;;0.50;99.70;;;;;;5068191;28;20466;-69
2021/04/06 00:34:11;;;;;;;4.30;2.00;;;0.60;99.70;;;;;;5068409;28;20493;-68
2021/04/06 00:36:38;;;;;;;3.23;1.90;;;0.60;99.70;;;;;;5067856;28;20470;-69
2021/04/06 00:39:05;;;;;;;4.50;2.10;;;0.40;99.70;;;;;;5067969;28;21007;-69
2021/04/06 00:41:32;;;;;;;4.20;2.00;;;0.70;99.70;;;;;;5068193;28;20933;-69
2021/04/06 00:44:04;;;;;;;9.77;2.00;;;0.80;99.70;;;;;;5068163;28;20447;-69
2021/04/06 00:46:32;;;;;;;5.43;2.20;;;0.70;99.70;;;;;;5065381;28;20446;-69
2021/04/06 00:49:00;;;;;;;5.50;1.90;;;0.40;99.70;;;;;;5067941;28;20447;-70
2021/04/06 00:51:37;;;;;;;7.20;1.90;;;0.70;99.70;;;;;;5067883;28;20470;-70
2021/04/06 00:54:05;;;;;;;3.60;2.10;;;0.30;99.70;;;;;;5068750;28;20448;-68
2021/04/06 00:56:33;;;;;;;7.73;2.93;;;0.40;99.70;;;;;;5071349;28;20455;-70
2021/04/06 00:59:03;;;;;;;6.63;2.60;;;0.70;99.70;;;;;;5071464;28;20451;-69
2021/04/06 01:01:32;;;;;;;4.50;2.23;;;0.50;99.70;;;;;;5071728;28;20465;-69
2021/04/06 01:03:58;;;;;;;5.90;2.40;;;0.20;99.70;;;;;;5071784;28;20443;-69
2021/04/06 01:06:25;;;;;;;5.57;2.37;;;0.40;99.70;;;;;;5071109;28;20447;-69
2021/04/06 01:08:53;;;;;;;6.20;2.30;;;0.50;99.70;;;;;;5071450;28;20445;-70
2021/04/06 01:11:21;;;;;;;6.30;2.57;;;0.20;99.70;;;;;;5071781;28;20638;-69
2021/04/06 01:13:48;;;;;;;9.10;2.70;;;0.70;99.70;;;;;;5071629;28;20446;-70
2021/04/06 01:16:16;;;;;;;5.57;2.77;;;1.10;99.70;;;;;;5070836;28;20489;-70
2021/04/06 01:18:44;;;;;;;6.23;2.40;;;1.00;99.70;;;;;;5071001;28;20451;-68
2021/04/06 01:21:11;;;;;;;5.73;2.60;;;1.00;99.70;;;;;;5071745;28;20459;-69
2021/04/06 01:23:39;;;;;;;6.70;2.20;;;0.90;99.70;;;;;;5071534;28;20459;-69
2021/04/06 01:26:11;;;;;;;9.50;2.30;;;1.00;99.70;;;;;;5070927;28;20443;-70
2021/04/06 01:28:37;;;;;;;12.30;2.60;;;1.10;99.70;;;;;;5071143;28;20459;-70
2021/04/06 01:31:06;;;;;;;5.30;2.37;;;1.00;99.70;;;;;;5071246;28;20534;-68
2021/04/06 01:33:33;;;;;;;5.93;2.53;;;0.70;99.70;;;;;;5071235;28;20897;-70
2021/04/06 01:36:02;;;;;;;5.03;2.50;;;1.10;99.70;;;;;;5070548;28;21104;-70
2021/04/06 01:38:29;;;;;;;5.33;2.70;;;0.90;99.70;;;;;;5071003;28;20438;-70
2021/04/06 01:40:57;;;;;;;6.07;2.80;;;0.70;99.70;;;;;;5071104;28;20619;-70
2021/04/06 01:43:26;;;;;;;3.40;2.50;;;0.40;99.70;;;;;;5070928;28;20450;-69
2021/04/06 01:45:57;;;;;;;5.83;2.70;;;0.30;99.70;;;;;;5068347;28;20443;-69
2021/04/06 01:48:28;;;;;;;3.90;2.77;;;0.70;99.70;;;;;;5070567;28;20457;-68
2021/04/06 01:50:55;;;;;;;6.73;3.23;;;0.60;99.70;;;;;;5070682;28;20470;-69
2021/04/06 01:53:23;;;;;;;4.47;2.60;;;0.40;99.70;;;;;;5070844;28;20453;-69
2021/04/06 01:55:52;;;;;;;10.07;2.90;;;0.40;99.70;;;;;;5070663;28;20485;-69
2021/04/06 01:58:21;;;;;;;6.90;3.00;;;0.50;99.70;;;;;;5071367;28;20593;-69
2021/04/06 02:00:57;;;;;;;6.57;2.60;;;0.50;99.70;;;;;;5070633;28;20469;-69
2021/04/06 02:03:27;;;;;;;3.87;2.80;;;0.20;99.70;;;;;;5070580;28;20451;-68
2021/04/06 02:05:53;;;;;;;7.30;2.60;;;0.30;99.70;;;;;;5070565;28;20443;-69
2021/04/06 02:08:21;;;;;;;6.53;3.00;;;0.50;99.70;;;;;;5070300;28;20454;-69
2021/04/06 02:10:49;;;;;;;4.43;3.20;;;0.20;99.70;;;;;;5070768;28;20499;-69
2021/04/06 02:13:16;;;;;;;8.33;2.50;;;0.70;99.70;;;;;;5070574;28;20955;-69
2021/04/06 02:15:54;;;;;;;6.13;2.70;;;0.50;99.70;;;;;;5069859;28;20536;-69
2021/04/06 02:18:21;;;;;;;8.93;2.70;;;0.20;99.70;;;;;;5070195;28;20442;-69
2021/04/06 02:20:52;;;;;;;6.43;4.63;;;0.30;99.70;;;;;;5070327;28;20474;-69
2021/04/06 02:23:18;;;;;;;4.67;2.67;;;0.10;99.70;;;;;;5070420;28;20446;-69
2021/04/06 02:25:51;;;;;;;3.83;2.33;;;0.20;99.70;;;;;;5069624;28;20508;-68
2021/04/06 02:28:18;;;;;;;5.50;2.57;;;0.00;99.70;;;;;;5070245;28;20423;-70
2021/04/06 02:30:52;;;;;;;4.93;2.80;;;0.00;99.70;;;;;;5069744;28;20531;-70
2021/04/06 02:33:23;;;;;;;4.30;2.80;;;0.00;99.70;;;;;;5070376;28;20438;-69
2021/04/06 02:36:00;;;;;;;5.40;2.80;;;-0.20;99.70;;;;;;5069543;28;20491;-69
2021/04/06 02:38:31;;;;;;;6.93;2.57;;;0.30;99.70;;;;;;5069693;28;20442;-70
2021/04/06 02:41:06;;;;;;;5.20;2.53;;;0.20;99.70;;;;;;5070155;28;20467;-68
2021/04/06 02:43:47;;;;;;;6.60;2.83;;;0.30;99.70;;;;;;5070060;28;20729;-69
2021/04/06 02:46:16;;;;;;;4.07;2.50;;;0.10;99.70;;;;;;5067264;28;20435;-70
2021/04/06 02:48:43;;;;;;;7.07;2.73;;;0.20;99.70;;;;;;5069377;28;20443;-68
2021/04/06 02:51:10;;;;;;;3.50;2.67;;;0.40;99.70;;;;;;5069675;28;20466;-70
2021/04/06 02:53:38;;;;;;;6.20;2.60;;;0.00;99.70;;;;;;5069740;28;20952;-70
2021/04/06 02:56:05;;;;;;;4.43;2.60;;;-0.30;99.70;;;;;;5068972;28;20565;-70
2021/04/06 02:58:36;;;;;;;4.50;2.30;;;0.00;99.70;;;;;;5069366;28;20455;-70
2021/04/06 03:01:21;;;;;;;4.10;2.67;;;0.00;99.70;;;;;;5069556;28;20467;-69
2021/04/06 03:03:47;;;;;;;8.00;2.50;;;0.20;99.70;;;;;;5069824;28;20450;-70
2021/04/06 03:06:14;;;;;;;3.83;2.60;;;0.60;99.70;;;;;;5068924;28;20439;-70
2021/04/06 03:08:42;;;;;;;4.40;2.87;;;0.50;99.70;;;;;;5069027;28;20488;-70
2021/04/06 03:11:10;;;;;;;5.60;2.63;;;0.30;99.70;;;;;;5069335;28;20459;-71
2021/04/06 03:13:40;;;;;;;4.80;3.00;;;0.00;99.70;;;;;;5069365;28;20869;-70
2021/04/06 03:16:08;;;;;;;5.57;2.60;;;0.10;99.70;;;;;;5068360;28;20987;-69
2021/04/06 03:18:36;;;;;;;8.83;2.80;;;0.30;99.70;;;;;;5068835;28;20620;-70
2021/04/06 03:21:05;;;;;;;7.97;2.50;;;0.40;99.70;;;;;;5069083;28;21002;-68
2021/04/06 03:23:32;;;;;;;8.80;2.87;;;0.40;99.70;;;;;;5069343;28;20584;-71
2021/04/06 03:25:59;;;;;;;3.77;2.63;;;0.30;99.70;;;;;;5068508;28;20472;-70
2021/04/06 03:28:36;;;;;;;3.30;2.40;;;0.60;99.70;;;;;;5068782;28;20439;-70
2021/04/06 03:31:11;;;;;;;4.40;2.90;;;0.40;99.70;;;;;;5068774;28;20501;-69
2021/04/06 03:33:41;;;;;;;4.13;2.57;;;0.60;99.70;;;;;;5069014;28;20450;-70
2021/04/06 03:36:08;;;;;;;4.57;2.73;;;0.70;99.70;;;;;;5068319;28;20478;-70
2021/04/06 03:38:35;;;;;;;10.37;3.00;;;0.60;99.70;;;;;;5068463;28;20454;-70
2021/04/06 03:41:02;;;;;;;6.00;2.80;;;0.40;99.70;;;;;;5068760;28;20849;-70
2021/04/06 03:43:38;;;;;;;7.23;2.90;;;0.70;99.70;;;;;;5068859;28;20447;-70
2021/04/06 03:46:04;;;;;;;5.97;2.80;;;0.70;99.70;;;;;;5066009;28;20504;-69
2021/04/06 03:48:32;;;;;;;7.50;2.93;;;0.70;99.70;;;;;;5068268;28;20443;-70
2021/04/06 03:51:00;;;;;;;7.40;2.70;;;0.80;99.70;;;;;;5068579;28;20533;-70
2021/04/06 03:53:37;;;;;;;8.07;3.13;;;0.50;99.70;;;;;;5068636;28;20443;-70
2021/04/06 03:56:05;;;;;;;6.40;3.20;;;0.50;99.70;;;;;;5068002;28;20478;-70
2021/04/06 03:58:35;;;;;;;8.83;3.23;;;0.70;99.70;;;;;;5068334;28;20442;-70
2021/04/06 04:01:01;;;;;;;6.17;3.10;;;0.50;99.70;;;;;;5068350;28;20976;-70
2021/04/06 04:03:27;;;;;;;6.50;3.33;;;0.40;99.70;;;;;;5068515;28;20439;-70
2021/04/06 04:05:54;;;;;;;6.20;3.33;;;0.40;99.70;;;;;;5068061;28;20450;-70
2021/04/06 04:08:21;;;;;;;9.20;3.20;;;0.70;99.70;;;;;;5067924;28;20932;-70
2021/04/06 04:10:47;;;;;;;7.50;3.83;;;0.50;99.70;;;;;;5068259;28;20471;-70
2021/04/06 04:13:13;;;;;;;8.53;3.00;;;0.50;99.70;;;;;;5068331;28;20446;-70
2021/04/06 04:15:39;;;;;;;8.13;3.40;;;0.50;99.70;;;;;;5067640;28;20485;-70
2021/04/06 04:18:05;;;;;;;6.90;3.53;;;0.60;99.70;;;;;;5067785;28;20443;-70
2021/04/06 04:20:32;;;;;;;7.03;3.63;;;0.70;99.70;;;;;;5068472;28;20469;-70
2021/04/06 04:22:58;;;;;;;7.70;3.50;;;0.80;99.70;;;;;;5068236;28;20451;-70
2021/04/06 04:25:25;;;;;;;9.00;3.30;;;0.80;99.70;;;;;;5067798;28;20468;-69
2021/04/06 04:27:52;;;;;;;9.70;3.37;;;0.90;99.70;;;;;;5068004;28;20446;-70
2021/04/06 04:30:36;;;;;;;5.83;3.37;;;1.00;99.70;;;;;;5071387;28;20685;-69
2021/04/06 04:33:03;;;;;;;6.40;3.00;;;0.90;99.70;;;;;;5072357;28;20512;-70
2021/04/06 04:35:30;;;;;;;8.67;3.40;;;0.80;99.70;;;;;;5071883;28;20474;-70
2021/04/06 04:37:56;;;;;;;8.77;3.50;;;0.80;99.70;;;;;;5072065;28;20445;-70
2021/04/06 04:40:22;;;;;;;5.80;3.07;;;0.70;99.70;;;;;;5072167;28;20926;-70
2021/04/06 04:42:52;;;;;;;6.73;3.40;;;0.60;99.70;;;;;;5072388;28;20447;-70
2021/04/06 04:45:18;;;;;;;9.30;3.20;;;0.80;99.70;;;;;;5070459;28;20446;-69
2021/04/06 04:47:45;;;;;;;6.63;3.03;;;0.80;99.70;;;;;;5072049;28;20894;-69
2021/04/06 04:50:12;;;;;;;7.17;3.23;;;0.90;99.70;;;;;;5072324;28;20442;-69
2021/04/06 04:52:38;;;;;;;6.63;3.10;;;0.80;99.70;;;;;;5072154;28;20940;-70
2021/04/06 04:55:05;;;;;;;5.73;2.80;;;0.90;99.70;;;;;;5071332;28;20481;-70
2021/04/06 04:57:31;;;;;;;7.60;3.47;;;0.50;99.70;;;;;;5071871;28;20435;-70
2021/04/06 04:59:58;;;;;;;10.83;3.40;;;0.40;99.70;;;;;;5072211;28;20447;-70
2021/04/06 05:02:24;;;;;;;11.10;3.80;;;0.60;99.70;;;;;;5071709;28;20450;-69
2021/04/06 05:04:51;;;;;;;5.93;3.20;;;0.40;99.70;;;;;;5072045;28;20438;-70
2021/04/06 05:07:17;;;;;;;5.70;3.23;;;0.60;99.70;;;;;;5071899;28;20537;-71
2021/04/06 05:09:43;;;;;;;8.53;3.17;;;0.70;99.70;;;;;;5072100;28;20453;-70
2021/04/06 05:12:09;;;;;;;7.40;3.53;;;0.70;99.70;;;;;;5071681;28;20535;-70
2021/04/06 05:14:35;;;;;;;4.80;3.03;;;0.70;99.70;;;;;;5071757;28;20455;-70
2021/04/06 05:17:03;;;;;;;4.43;3.20;;;0.70;99.70;;;;;;5071151;28;21009;-69
2021/04/06 05:19:29;;;;;;;6.80;3.10;;;0.60;99.70;;;;;;5071946;28;20443;-70
2021/04/06 05:21:55;;;;;;;6.63;3.20;;;1.00;99.70;;;;;;5071852;28;20459;-70
2021/04/06 05:24:21;;;;;;;6.63;3.50;;;0.80;99.70;;;;;;5071233;28;21028;-70
2021/04/06 05:26:47;;;;;;;6.47;3.63;;;0.70;99.70;;;;;;5072098;28;20454;-68
2021/04/06 05:29:13;;;;;;;4.93;3.20;;;0.80;99.70;;;;;;5071377;28;20439;-68
2021/04/06 05:31:40;;;;;;;7.00;3.37;;;0.90;99.70;;;;;;5071129;28;20991;-69
2021/04/06 05:34:07;;;;;;;7.83;3.80;;;0.70;99.70;;;;;;5071240;28;20451;-69
2021/04/06 05:36:33;;;;;;;12.67;3.43;;;0.60;99.70;;;;;;5070802;28;20508;-68
2021/04/06 05:39:00;;;;;;;9.13;3.60;;;0.70;99.70;;;;;;5071480;28;20457;-69
2021/04/06 05:41:26;;;;;;;9.27;3.17;;;1.00;99.70;;;;;;5070829;28;20485;-68
2021/04/06 05:43:59;;;;;;;6.30;3.47;;;1.10;99.70;;;;;;5071133;28;20477;-69
2021/04/06 05:46:27;;;;;;;7.20;3.20;;;0.90;99.70;;;;;;5069322;28;20447;-70
2021/04/06 05:48:53;;;;;;;8.23;4.47;;;0.90;99.70;;;;;;5070849;28;20874;-69
2021/04/06 05:51:22;;;;;;;7.03;3.43;;;0.90;99.70;;;;;;5071041;28;20467;-69
2021/04/06 05:53:48;;;;;;;11.37;3.67;;;0.70;99.70;;;;;;5070901;28;20963;-69
2021/04/06 05:56:14;;;;;;;6.20;3.53;;;0.80;99.70;;;;;;5070433;28;21143;-69
2021/04/06 05:58:40;;;;;;;6.37;3.60;;;0.90;99.70;;;;;;5070567;28;20451;-69
2021/04/06 06:01:06;;;;;;;5.53;3.10;;;1.00;99.70;;;;;;5070755;28;20971;-69
2021/04/06 06:03:33;;;;;;;12.97;4.83;;;1.00;99.70;;;;;;5071018;28;20450;-69
2021/04/06 06:05:59;;;;;;;6.10;3.20;;;1.00;99.70;;;;;;5070324;28;20443;-69
2021/04/06 06:08:29;;;;;;;7.10;3.40;;;1.20;99.70;;;;;;5069976;28;20435;-67
2021/04/06 06:11:03;;;;;;;8.13;4.00;;;1.20;99.70;;;;;;5075120;28;21028;-65
2021/04/06 06:13:30;;;;;;;9.20;3.70;;;1.10;99.70;;;;;;5062056;28;21055;-67
2021/04/06 06:16:11;;;;;;;9.80;4.47;;;1.10;99.70;;;;;;5058672;28;20577;-69
2021/04/06 06:19:02;;;;;;;10.53;3.60;;;1.30;99.70;;;;;;5069406;28;20443;-69
2021/04/06 06:21:46;;;;;;;7.77;3.47;;;1.30;99.70;;;;;;5049514;28;21003;-69
2021/04/06 06:24:24;;;;;;;5.90;3.90;;;1.50;99.70;;;;;;5049148;28;20845;-68
2021/04/06 06:26:50;;;;;;;11.13;4.10;;;1.50;99.70;;;;;;5050032;28;20466;-68
2021/04/06 06:29:19;;;;;;;6.10;3.70;;;1.30;99.70;;;;;;5048802;28;20658;-68
2021/04/06 06:31:47;;;;;;;6.80;3.40;;;1.30;99.70;;;;;;5049590;28;20493;-68
2021/04/06 06:34:33;;;;;;;8.53;4.20;;;1.20;99.70;;;;;;5062355;28;20443;-70
2021/04/06 06:37:07;;;;;;;13.50;3.53;;;1.40;99.70;;;;;;5065238;28;21075;-69
2021/04/06 06:39:35;;;;;;;6.60;3.70;;;1.60;99.70;;;;;;5057620;28;20447;-70
2021/04/06 06:42:03;;;;;;;12.80;4.30;;;1.70;99.70;;;;;;5064254;28;20466;-69
2021/04/06 06:44:31;;;;;;;12.60;4.63;;;1.40;99.70;;;;;;5062395;28;20541;-70
2021/04/06 06:47:12;;;;;;;7.33;3.60;;;1.60;99.70;;;;;;5063735;28;20443;-69
2021/04/06 06:49:41;;;;;;;7.53;4.00;;;1.70;99.70;;;;;;5048676;28;20451;-68
2021/04/06 06:52:27;;;;;;;9.10;3.40;;;1.80;99.70;;;;;;5050593;28;20505;-68
2021/04/06 06:54:57;;;;;;;7.83;3.50;;;1.90;99.70;;;;;;5068278;28;20453;-68
2021/04/06 06:57:29;;;;;;;6.40;3.73;;;1.50;99.70;;;;;;5063787;28;20547;-68
2021/04/06 07:00:06;;;;;;;8.73;4.13;;;1.30;99.70;;;;;;5050125;28;20497;-66
2021/04/06 07:02:33;;;;;;;11.53;3.77;;;1.40;99.70;;;;;;5070108;28;20451;-66
2021/04/06 07:05:18;;;;;;;7.93;3.50;;;1.50;99.70;;;;;;5059276;28;20898;-69
2021/04/06 07:07:59;;;;;;;7.60;3.87;;;1.50;99.70;;;;;;5048609;28;21084;-68
2021/04/06 07:10:29;;;;;;;9.73;4.03;;;1.50;99.70;;;;;;5049849;28;20464;-69
2021/04/06 07:13:10;;;;;;;6.90;3.03;;;1.60;99.70;;;;;;5048548;28;20448;-70
2021/04/06 07:15:38;;;;;;;8.57;3.70;;;1.80;99.70;;;;;;5048643;28;20475;-69
2021/04/06 07:18:07;;;;;;;6.70;3.80;;;1.90;99.70;;;;;;5056391;28;20455;-69
2021/04/06 07:20:38;;;;;;;6.60;3.47;;;1.90;99.70;;;;;;5071925;28;20708;-69
2021/04/06 07:23:08;;;;;;;8.40;3.60;;;1.90;99.70;;;;;;5061696;28;20556;-67
2021/04/06 07:25:36;;;;;;;7.30;3.93;;;2.30;99.70;;;;;;5065452;28;20454;-69
2021/04/06 07:28:03;;;;;;;12.43;3.97;;;2.10;99.70;;;;;;5066963;28;20447;-70
2021/04/06 07:30:29;;;;;;;12.50;4.00;;;1.90;99.70;;;;;;5066825;28;20500;-69
2021/04/06 07:32:57;;;;;;;9.30;4.83;;;2.00;99.70;;;;;;5056318;28;20960;-68
2021/04/06 07:35:25;;;;;;;5.73;3.77;;;2.00;99.70;;;;;;5046024;28;20479;-66
2021/04/06 07:37:52;;;;;;;9.30;4.13;;;2.20;99.70;;;;;;5054442;28;20447;-69
2021/04/06 07:40:21;;;;;;;11.10;3.80;;;2.10;99.70;;;;;;5060371;28;20521;-68
2021/04/06 07:42:49;;;;;;;8.10;4.13;;;2.20;99.70;;;;;;5046056;28;20498;-69
2021/04/06 07:45:41;;;;;;;14.43;5.00;;;2.30;99.70;;;;;;5049558;28;20526;-68
2021/04/06 07:48:11;;;;;;;9.13;4.20;;;2.10;99.70;;;;;;5065787;28;20531;-66
2021/04/06 07:50:41;;;;;;;7.17;4.20;;;2.00;99.70;;;;;;5069359;28;20451;-68
2021/04/06 07:53:26;;;;;;;9.10;4.20;;;2.50;99.70;;;;;;5067276;28;20453;-69
2021/04/06 07:55:56;;;;;;;10.63;5.40;;;2.40;99.70;;;;;;5062425;28;20478;-68
2021/04/06 07:58:45;;;;;;;8.77;5.37;;;2.50;99.70;;;;;;5059736;28;20462;-68
2021/04/06 08:01:16;;;;;;;12.23;4.50;;;2.50;99.70;;;;;;5057802;28;20514;-68
2021/04/06 08:04:03;;;;;;;7.33;4.03;;;2.80;99.70;;;;;;5065742;28;20451;-67
2021/04/06 08:06:41;;;;;;;9.87;4.47;;;2.90;99.70;;;;;;5047342;28;20442;-67
2021/04/06 08:09:43;;;;;;;15.90;7.13;;;2.60;99.70;;;;;;5046753;28;20475;-69
2021/04/06 08:12:11;;;;;;;11.00;4.60;;;2.60;99.70;;;;;;5055422;28;20462;-67
2021/04/06 08:14:40;;;;;;;13.80;5.17;;;2.40;99.70;;;;;;5061899;28;20443;-69
2021/04/06 08:17:55;;;;;;;13.37;6.80;;;2.30;99.70;;;;;;5062586;28;20765;-69
2021/04/06 08:20:44;;;;;;;11.73;5.80;;;2.50;99.70;;;;;;4980728;28;20466;-68
2021/04/06 08:23:14;;;;;;;10.40;4.33;;;2.40;99.70;;;;;;5068101;28;20565;-68
2021/04/06 08:25:52;;;;;;;8.83;4.63;;;2.30;99.70;;;;;;5054336;28;20450;-68
2021/04/06 08:28:44;;;;;;;8.93;4.50;;;2.30;99.70;;;;;;5047393;28;20526;-67
2021/04/06 08:31:28;;;;;;;10.63;5.50;;;2.50;99.70;;;;;;5053009;28;20576;-69
2021/04/06 08:34:15;;;;;;;17.27;7.10;;;2.30;99.70;;;;;;5055440;28;20482;-68
2021/04/06 08:36:41;;;;;;;17.93;5.70;;;2.50;99.70;;;;;;5056131;28;20505;-68
2021/04/06 08:39:07;;;;;;;19.57;7.60;;;2.50;99.70;;;;;;5064130;28;20443;-68
2021/04/06 08:41:39;;;;;;;41.83;17.70;;;2.30;99.70;;;;;;5058007;28;20853;-68
2021/04/06 08:44:09;;;;;;;14.97;7.70;;;2.50;99.70;;;;;;5047882;28;20443;-66
2021/04/06 08:46:49;;;;;;;15.33;6.77;;;2.50;99.70;;;;;;5059169;28;20443;-65
2021/04/06 08:49:18;;;;;;;10.80;6.07;;;2.40;99.70;;;;;;5066453;28;20446;-67
2021/04/06 08:51:47;;;;;;;11.27;5.70;;;2.30;99.70;;;;;;5061896;28;20467;-69
2021/04/06 08:54:17;;;;;;;11.93;5.30;;;2.40;99.70;;;;;;5053239;28;20470;-65
2021/04/06 08:56:45;;;;;;;10.63;5.20;;;2.50;99.70;;;;;;5058074;28;20578;-65
2021/04/06 08:59:17;;;;;;;10.73;5.13;;;2.60;99.70;;;;;;5066785;28;20529;-67
2021/04/06 09:01:45;;;;;;;11.00;4.63;;;3.00;99.70;;;;;;5064813;28;20478;-68
2021/04/06 09:04:13;;;;;;;9.50;4.90;;;2.80;99.70;;;;;;5045453;28;20833;-68
2021/04/06 09:06:40;;;;;;;11.33;4.47;;;2.70;99.70;;;;;;5055931;28;20452;-68
2021/04/06 09:09:06;;;;;;;16.73;5.57;;;2.70;99.70;;;;;;5049482;28;20455;-66
2021/04/06 09:11:33;;;;;;;8.87;4.67;;;2.70;99.70;;;;;;5056892;28;20464;-66
2021/04/06 09:14:00;;;;;;;14.23;4.60;;;2.20;99.70;;;;;;5050358;28;20614;-69
2021/04/06 09:16:27;;;;;;;15.10;5.10;;;2.20;99.70;;;;;;5068489;28;20479;-68
2021/04/06 09:18:55;;;;;;;11.73;5.50;;;2.20;99.70;;;;;;5070763;28;20467;-68
2021/04/06 09:21:23;;;;;;;11.07;4.60;;;2.10;99.70;;;;;;5068153;28;20991;-69
2021/04/06 09:23:51;;;;;;;10.67;4.90;;;2.20;99.70;;;;;;5069792;28;20790;-69
2021/04/06 09:26:18;;;;;;;8.00;4.33;;;2.20;99.70;;;;;;5067287;28;20436;-68
2021/04/06 09:28:44;;;;;;;13.03;4.40;;;2.10;99.70;;;;;;5058956;28;20434;-68
2021/04/06 09:31:10;;;;;;;7.73;4.00;;;2.00;99.70;;;;;;5069574;28;20541;-69
2021/04/06 09:33:38;;;;;;;13.27;5.13;;;2.20;99.70;;;;;;5069278;28;20832;-68
2021/04/06 09:36:12;;;;;;;8.50;4.40;;;2.50;99.70;;;;;;5066308;28;20932;-64
2021/04/06 09:38:40;;;;;;;10.50;4.60;;;2.40;99.70;;;;;;5061626;28;20820;-69
2021/04/06 09:41:10;;;;;;;8.37;3.97;;;2.50;99.70;;;;;;5060013;28;20549;-70
2021/04/06 09:43:37;;;;;;;8.53;3.90;;;2.60;99.70;;;;;;5059173;28;20798;-66
2021/04/06 09:46:04;;;;;;;11.63;4.73;;;2.90;99.70;;;;;;5069696;28;20443;-68
2021/04/06 09:48:32;;;;;;;14.23;5.30;;;3.20;99.70;;;;;;5068796;28;20442;-67
2021/04/06 09:51:00;;;;;;;13.83;5.37;;;2.60;99.70;;;;;;5066604;28;20469;-64
2021/04/06 09:53:27;;;;;;;17.93;5.70;;;2.60;99.70;;;;;;5060017;28;20439;-66
2021/04/06 09:55:55;;;;;;;15.57;6.50;;;2.50;99.70;;;;;;5056418;28;20535;-68
2021/04/06 09:58:22;;;;;;;13.43;5.60;;;2.90;99.70;;;;;;5055851;28;20871;-69
2021/04/06 10:00:48;;;;;;;7.60;4.37;;;3.00;99.70;;;;;;5054537;28;20835;-69
2021/04/06 10:03:23;;;;;;;10.07;3.70;;;3.10;99.70;;;;;;5058368;28;20439;-68
2021/04/06 10:05:50;;;;;;;7.47;3.27;;;3.30;99.70;;;;;;5068066;28;20450;-69
2021/04/06 10:08:29;;;;;;;5.50;2.93;;;3.20;99.70;;;;;;5070990;28;20447;-67
2021/04/06 10:10:55;;;;;;;8.27;2.80;;;3.20;99.70;;;;;;5075346;28;20458;-65
2021/04/06 10:13:22;;;;;;;7.20;3.13;;;2.90;99.70;;;;;;5073698;28;20442;-64
2021/04/06 10:15:49;;;;;;;9.80;3.10;;;3.00;99.70;;;;;;5064323;28;20934;-65
2021/04/06 10:18:17;;;;;;;6.67;2.87;;;3.10;99.70;;;;;;5065117;28;20945;-68
2021/04/06 10:20:46;;;;;;;6.17;3.00;;;3.10;99.70;;;;;;5058820;28;20463;-67
2021/04/06 10:23:14;;;;;;;6.80;3.00;;;3.20;99.70;;;;;;5069556;28;20455;-67
2021/04/06 10:25:43;;;;;;;9.30;2.97;;;3.10;99.70;;;;;;5056029;28;20820;-68
2021/04/06 10:28:20;;;;;;;9.77;3.00;;;3.20;99.70;;;;;;5060119;28;20443;-68
2021/04/06 10:30:48;;;;;;;7.93;2.90;;;3.30;99.70;;;;;;5056909;28;20471;-68
2021/04/06 10:33:16;;;;;;;7.50;3.03;;;3.60;99.70;;;;;;5064177;28;20700;-69
2021/04/06 10:35:44;;;;;;;6.90;2.90;;;3.80;99.70;;;;;;5067110;28;20490;-67
2021/04/06 10:38:17;;;;;;;5.83;3.10;;;3.70;99.70;;;;;;5052485;28;20793;-68
2021/04/06 10:40:45;;;;;;;4.10;2.50;;;3.40;99.70;;;;;;5065625;28;20459;-67
2021/04/06 10:43:13;;;;;;;7.07;2.43;;;3.50;99.70;;;;;;5066943;28;20450;-69
2021/04/06 10:45:42;;;;;;;11.37;3.00;;;3.70;99.70;;;;;;5065311;28;20443;-68
2021/04/06 10:48:14;;;;;;;8.00;2.90;;;3.70;99.70;;;;;;5050921;28;20459;-68
2021/04/06 10:50:44;;;;;;;7.80;2.80;;;3.60;99.70;;;;;;5066152;28;20841;-69
2021/04/06 10:53:15;;;;;;;7.27;2.77;;;3.90;99.70;;;;;;5052316;28;20448;-69
2021/04/06 10:55:42;;;;;;;5.00;2.80;;;3.90;99.70;;;;;;5048323;28;20662;-70
2021/04/06 10:58:09;;;;;;;5.07;2.43;;;4.00;99.70;;;;;;5048947;28;20772;-68
2021/04/06 11:00:38;;;;;;;5.60;2.47;;;4.00;99.70;;;;;;5048181;28;20464;-69
2021/04/06 11:03:13;;;;;;;6.07;2.43;;;4.10;99.70;;;;;;5066039;28;20485;-69
2021/04/06 11:05:40;;;;;;;9.37;2.87;;;4.50;99.70;;;;;;5067690;28;20438;-70
2021/04/06 11:08:23;;;;;;;4.43;2.83;;;4.60;99.70;;;;;;5066379;28;20458;-67
2021/04/06 11:10:51;;;;;;;4.87;2.77;;;4.50;99.70;;;;;;5067550;28;20482;-69
2021/04/06 11:13:19;;;;;;;9.37;3.57;;;4.60;99.70;;;;;;5067724;28;20451;-69
2021/04/06 11:15:46;;;;;;;6.93;3.43;;;4.80;99.70;;;;;;5062992;28;20852;-69
2021/04/06 11:18:12;;;;;;;11.73;3.73;;;4.80;99.70;;;;;;5060437;28;20466;-70
2021/04/06 11:20:40;;;;;;;9.70;3.23;;;4.90;99.70;;;;;;5048159;28;20466;-70
2021/04/06 11:23:06;;;;;;;6.27;3.50;;;4.80;99.70;;;;;;5048365;28;20436;-69
2021/04/06 11:25:33;;;;;;;6.00;2.83;;;4.70;99.70;;;;;;5047416;28;20436;-69
2021/04/06 11:28:00;;;;;;;4.73;2.90;;;5.00;99.70;;;;;;5064115;28;20477;-68
2021/04/06 11:30:31;;;;;;;7.00;3.90;;;4.90;99.70;;;;;;5047251;28;20479;-68
2021/04/06 11:32:59;;;;;;;7.03;4.07;;;4.90;99.70;;;;;;5063765;28;20706;-68
2021/04/06 11:35:25;;;;;;;10.00;3.23;;;4.70;99.00;;;;;;5053619;28;20774;-68
2021/04/06 11:37:51;;;;;;;7.23;3.30;;;4.90;99.70;;;;;;5063170;28;20448;-68
2021/04/06 11:40:17;;;;;;;9.40;3.20;;;4.70;98.70;;;;;;5068506;28;20468;-68
2021/04/06 11:42:44;;;;;;;9.70;3.23;;;4.80;99.70;;;;;;5052519;28;20501;-68
2021/04/06 11:45:11;;;;;;;8.43;4.07;;;5.00;99.00;;;;;;5047736;28;20463;-69
2021/04/06 11:47:38;;;;;;;7.00;3.10;;;5.10;99.30;;;;;;5067478;28;20449;-69
2021/04/06 11:50:07;;;;;;;6.43;2.97;;;5.10;99.00;;;;;;5066397;28;20439;-68
2021/04/06 11:52:34;;;;;;;5.67;2.83;;;4.90;98.20;;;;;;5061535;28;20883;-69
2021/04/06 11:55:01;;;;;;;6.47;2.90;;;5.00;98.90;;;;;;5070372;28;20453;-66
2021/04/06 11:57:28;;;;;;;5.30;2.80;;;4.80;97.70;;;;;;5068226;28;20583;-65
2021/04/06 11:59:55;;;;;;;6.93;2.90;;;4.80;99.00;;;;;;5045464;28;20460;-69
2021/04/06 12:02:22;;;;;;;8.20;2.80;;;4.90;99.20;;;;;;5049364;28;20451;-69
2021/04/06 12:04:49;;;;;;;6.97;2.70;;;5.00;99.00;;;;;;5065942;28;20479;-68
2021/04/06 12:07:15;;;;;;;10.30;3.43;;;4.80;97.70;;;;;;5066917;28;20443;-68
2021/04/06 12:09:41;;;;;;;6.37;2.90;;;4.80;97.00;;;;;;5051921;28;20833;-68
2021/04/06 12:12:08;;;;;;;8.63;3.93;;;4.60;96.00;;;;;;5046000;28;20984;-69
2021/04/06 12:14:35;;;;;;;7.40;3.23;;;4.90;97.60;;;;;;5054128;28;20439;-68
2021/04/06 12:17:01;;;;;;;7.43;3.43;;;4.70;95.60;;;;;;5051808;28;20487;-70
2021/04/06 12:19:27;;;;;;;4.20;2.50;;;4.70;98.00;;;;;;5050728;28;20435;-68
2021/04/06 12:21:54;;;;;;;7.97;2.87;;;4.80;95.80;;;;;;5066607;28;21013;-69
2021/04/06 12:24:20;;;;;;;9.20;3.60;;;4.60;95.20;;;;;;5067727;28;20451;-68
2021/04/06 12:26:46;;;;;;;5.47;2.70;;;4.50;95.70;;;;;;5056687;28;21265;-68
2021/04/06 12:29:12;;;;;;;6.13;2.90;;;4.60;94.50;;;;;;5051931;28;20748;-67
2021/04/06 12:31:39;;;;;;;7.10;3.20;;;4.90;96.00;;;;;;5057812;28;20471;-69
2021/04/06 12:34:05;;;;;;;5.03;2.43;;;5.10;95.00;;;;;;5053508;28;20959;-68
2021/04/06 12:36:31;;;;;;;4.43;3.20;;;4.80;94.00;;;;;;5049166;28;20480;-69
2021/04/06 12:38:58;;;;;;;6.10;2.80;;;4.40;95.00;;;;;;5046262;28;20451;-68
2021/04/06 12:41:24;;;;;;;9.57;3.13;;;4.40;94.10;;;;;;5050621;28;21015;-68
2021/04/06 12:43:50;;;;;;;9.73;3.37;;;4.20;96.20;;;;;;5066308;28;20445;-68
2021/04/06 12:46:17;;;;;;;6.20;3.03;;;4.50;97.00;;;;;;5062569;28;20458;-69
2021/04/06 12:48:43;;;;;;;10.53;3.00;;;4.60;94.40;;;;;;5066666;28;20972;-67
2021/04/06 12:51:09;;;;;;;4.20;2.60;;;5.00;93.80;;;;;;5067126;28;20474;-68
2021/04/06 12:53:35;;;;;;;4.90;2.60;;;4.90;92.20;;;;;;5068606;28;20796;-68
2021/04/06 12:56:03;;;;;;;3.80;2.70;;;5.00;90.60;;;;;;5070679;28;20482;-68
2021/04/06 12:58:29;;;;;;;4.10;2.80;;;4.90;92.10;;;;;;5058835;28;20494;-68
2021/04/06 13:00:55;;;;;;;9.13;2.90;;;5.20;89.80;;;;;;5049689;28;20478;-69
2021/04/06 13:03:21;;;;;;;6.23;2.60;;;5.40;90.90;;;;;;5051243;28;20467;-69
2021/04/06 13:05:48;;;;;;;8.50;2.63;;;5.70;89.60;;;;;;5050635;28;20452;-68
2021/04/06 13:08:14;;;;;;;4.40;2.77;;;5.80;89.20;;;;;;5051039;28;20447;-69